Αρχική σελίδα
METAR-TAF:

METAR-TAF

Αεροδρόμια :

Ντακάρ, Σενεγάλη

γεωγραφικό πλάτος: 14-44N, γεωγραφικό μήκος: 017-30W, υψόμετρο: 27 μ

Παρών καιρός

Η αναφορά έγινε 1 ώρα και 6 λεπτά πριν, στις 23:00 UTC
Άνεμος 4 kt από Δ
Θερμοκρασία 27°C
Υγρασία 84%
Πίεση 1015 hPa
Ορατότητα: 8000 μ
Λίγα νέφη σε ύψος 1300 πόδια

METAR: GOOY 162300Z 28004KT 8000 FEW013 27/24 Q1015

Χρόνος: 00:06 (00:06 UTC)

Πρόγνωση Καιρού

Η αναφορά έγινε 36 λεπτά πριν, στις 23:30 UTC
Η πρόγνωση ισχύει από τις 17 στις 00 UTC έως τις 18 στις 06 UTC
Άνεμος 10 kt από Δ
Ορατότητα 10 χλμ και άνω
Διάσπαρτα νέφη σε ύψος 1300 πόδια

TAF: GOOY 162330Z 1700/1806 28010KT 9999 SCT013

Μετεωρολογικές αναφορές και προγνώσεις για περισσότερα από 4000 αεροδρόμια (δελτία METAR και TAF).

Οι διαθέσιμοι σταθμοί απεικονίζονται στο χάρτη με κίτρινες και κόκκινες κουκκίδες.

Μετακινήστε το ποντίκι πάνω από τις κουκκίδες για να δείτε το όνομα του σταθμού.

Στη συνέχεια, κάντε κλικ για να δείτε τις μετεωρολογικές αναφορές και τις προγνώσεις καιρού.

Για να αλλάξετε το χάρτη: κάντε κλικ στα πράσινα κουμπιά με τον μαύρο σταυρό για να ζουμάρετε, στο πράσινο κουμπί με την παύλα για να αφαιρέσετε το ζουμ ή στα πράσινα βέλη για να αντιπαραβάλλετε χάρτες.


METAR-TAF: